sensor_id;sensor_type;location;lat;lon;timestamp;temperature;humidity
21275;DHT22;36472;52.170;20.884;2024-03-08T00:02:05;23.80;31.70
21275;DHT22;36472;52.170;20.884;2024-03-08T00:04:34;23.80;31.70
21275;DHT22;36472;52.170;20.884;2024-03-08T00:07:03;23.80;31.60
21275;DHT22;36472;52.170;20.884;2024-03-08T00:09:33;23.80;31.70
21275;DHT22;36472;52.170;20.884;2024-03-08T00:12:03;23.80;31.80
21275;DHT22;36472;52.170;20.884;2024-03-08T00:14:34;23.80;31.80
21275;DHT22;36472;52.170;20.884;2024-03-08T00:17:04;23.80;31.90
21275;DHT22;36472;52.170;20.884;2024-03-08T00:19:33;23.70;31.80
21275;DHT22;36472;52.170;20.884;2024-03-08T00:22:02;23.70;31.70
21275;DHT22;36472;52.170;20.884;2024-03-08T00:24:31;23.70;31.80
21275;DHT22;36472;52.170;20.884;2024-03-08T00:27:00;23.70;31.80
21275;DHT22;36472;52.170;20.884;2024-03-08T00:29:31;23.70;31.70
21275;DHT22;36472;52.170;20.884;2024-03-08T00:32:00;23.70;31.70
21275;DHT22;36472;52.170;20.884;2024-03-08T00:34:29;23.70;31.80
21275;DHT22;36472;52.170;20.884;2024-03-08T00:36:58;23.70;31.90
21275;DHT22;36472;52.170;20.884;2024-03-08T00:39:28;23.70;32.00
21275;DHT22;36472;52.170;20.884;2024-03-08T00:41:56;23.70;31.80
21275;DHT22;36472;52.170;20.884;2024-03-08T00:44:26;23.70;31.70
21275;DHT22;36472;52.170;20.884;2024-03-08T00:46:56;23.70;31.70
21275;DHT22;36472;52.170;20.884;2024-03-08T00:49:26;23.70;31.70
21275;DHT22;36472;52.170;20.884;2024-03-08T00:51:55;23.70;31.70
21275;DHT22;36472;52.170;20.884;2024-03-08T00:54:24;23.70;31.90
21275;DHT22;36472;52.170;20.884;2024-03-08T00:56:53;23.60;31.70
21275;DHT22;36472;52.170;20.884;2024-03-08T00:59:23;23.60;31.70
21275;DHT22;36472;52.170;20.884;2024-03-08T01:01:51;23.60;31.80
21275;DHT22;36472;52.170;20.884;2024-03-08T01:04:22;23.60;32.50
21275;DHT22;36472;52.170;20.884;2024-03-08T01:06:53;23.60;31.80
21275;DHT22;36472;52.170;20.884;2024-03-08T01:09:24;23.60;32.00
21275;DHT22;36472;52.170;20.884;2024-03-08T01:11:53;23.70;32.20
21275;DHT22;36472;52.170;20.884;2024-03-08T01:14:24;23.60;32.00
21275;DHT22;36472;52.170;20.884;2024-03-08T01:16:55;23.60;31.80
21275;DHT22;36472;52.170;20.884;2024-03-08T01:23:57;23.60;31.70
21275;DHT22;36472;52.170;20.884;2024-03-08T01:26:26;23.60;31.30
21275;DHT22;36472;52.170;20.884;2024-03-08T01:28:56;23.60;31.30
21275;DHT22;36472;52.170;20.884;2024-03-08T01:31:25;23.70;31.20
21275;DHT22;36472;52.170;20.884;2024-03-08T01:33:56;23.70;31.50
21275;DHT22;36472;52.170;20.884;2024-03-08T01:36:25;23.70;31.60
21275;DHT22;36472;52.170;20.884;2024-03-08T01:38:54;23.70;31.40
21275;DHT22;36472;52.170;20.884;2024-03-08T01:41:25;23.70;31.60
21275;DHT22;36472;52.170;20.884;2024-03-08T01:43:57;23.70;31.50
21275;DHT22;36472;52.170;20.884;2024-03-08T01:46:26;23.60;31.10
21275;DHT22;36472;52.170;20.884;2024-03-08T01:48:56;23.70;31.80
21275;DHT22;36472;52.170;20.884;2024-03-08T01:55:58;23.60;31.70
21275;DHT22;36472;52.170;20.884;2024-03-08T01:58:29;23.60;31.20
21275;DHT22;36472;52.170;20.884;2024-03-08T02:01:01;23.60;31.20
21275;DHT22;36472;52.170;20.884;2024-03-08T02:03:31;23.60;31.20
21275;DHT22;36472;52.170;20.884;2024-03-08T02:06:00;23.60;31.10
21275;DHT22;36472;52.170;20.884;2024-03-08T02:08:29;23.50;31.10
21275;DHT22;36472;52.170;20.884;2024-03-08T02:10:59;23.60;31.00
21275;DHT22;36472;52.170;20.884;2024-03-08T02:13:31;23.50;30.90
21275;DHT22;36472;52.170;20.884;2024-03-08T02:16:01;23.50;30.90
21275;DHT22;36472;52.170;20.884;2024-03-08T02:18:33;23.50;31.00
21275;DHT22;36472;52.170;20.884;2024-03-08T02:21:06;23.60;31.10
21275;DHT22;36472;52.170;20.884;2024-03-08T02:23:36;23.50;31.60
21275;DHT22;36472;52.170;20.884;2024-03-08T02:26:05;23.50;31.60
21275;DHT22;36472;52.170;20.884;2024-03-08T02:28:35;23.50;31.70
21275;DHT22;36472;52.170;20.884;2024-03-08T02:31:04;23.50;31.50
21275;DHT22;36472;52.170;20.884;2024-03-08T02:33:35;23.50;31.60
21275;DHT22;36472;52.170;20.884;2024-03-08T02:36:07;23.40;31.70
21275;DHT22;36472;52.170;20.884;2024-03-08T02:38:36;23.40;31.80
21275;DHT22;36472;52.170;20.884;2024-03-08T02:41:05;23.40;31.60
21275;DHT22;36472;52.170;20.884;2024-03-08T02:43:34;23.40;31.80
21275;DHT22;36472;52.170;20.884;2024-03-08T02:46:03;23.30;31.80
21275;DHT22;36472;52.170;20.884;2024-03-08T02:48:32;23.30;32.10
21275;DHT22;36472;52.170;20.884;2024-03-08T02:51:02;23.30;31.60
21275;DHT22;36472;52.170;20.884;2024-03-08T02:53:32;23.30;31.30
21275;DHT22;36472;52.170;20.884;2024-03-08T02:56:03;23.30;31.30
21275;DHT22;36472;52.170;20.884;2024-03-08T02:58:35;23.30;31.30
21275;DHT22;36472;52.170;20.884;2024-03-08T03:01:04;23.30;31.20
21275;DHT22;36472;52.170;20.884;2024-03-08T03:03:33;23.30;31.40
21275;DHT22;36472;52.170;20.884;2024-03-08T03:06:03;23.40;31.70
21275;DHT22;36472;52.170;20.884;2024-03-08T03:08:33;23.30;31.60
21275;DHT22;36472;52.170;20.884;2024-03-08T03:11:02;23.30;31.70
21275;DHT22;36472;52.170;20.884;2024-03-08T03:13:31;23.30;31.90
21275;DHT22;36472;52.170;20.884;2024-03-08T03:16:01;23.30;31.70
21275;DHT22;36472;52.170;20.884;2024-03-08T03:18:30;23.20;31.90
21275;DHT22;36472;52.170;20.884;2024-03-08T03:21:00;23.20;31.90
21275;DHT22;36472;52.170;20.884;2024-03-08T03:23:36;23.20;31.80
21275;DHT22;36472;52.170;20.884;2024-03-08T03:26:07;23.20;31.80
21275;DHT22;36472;52.170;20.884;2024-03-08T03:28:38;23.20;31.50
21275;DHT22;36472;52.170;20.884;2024-03-08T03:31:07;23.10;31.50
21275;DHT22;36472;52.170;20.884;2024-03-08T03:33:38;23.10;31.90
21275;DHT22;36472;52.170;20.884;2024-03-08T03:36:07;23.10;31.90
21275;DHT22;36472;52.170;20.884;2024-03-08T03:38:39;23.10;31.90
21275;DHT22;36472;52.170;20.884;2024-03-08T03:41:08;23.10;32.00
21275;DHT22;36472;52.170;20.884;2024-03-08T03:43:38;23.00;31.80
21275;DHT22;36472;52.170;20.884;2024-03-08T03:46:07;23.00;31.80
21275;DHT22;36472;52.170;20.884;2024-03-08T03:48:38;23.00;31.80
21275;DHT22;36472;52.170;20.884;2024-03-08T03:51:07;23.00;32.00
21275;DHT22;36472;52.170;20.884;2024-03-08T03:53:38;23.00;31.70
21275;DHT22;36472;52.170;20.884;2024-03-08T03:56:07;23.00;31.80
21275;DHT22;36472;52.170;20.884;2024-03-08T03:58:36;23.00;31.70
21275;DHT22;36472;52.170;20.884;2024-03-08T04:01:05;23.00;31.60
21275;DHT22;36472;52.170;20.884;2024-03-08T04:03:35;23.00;31.50
21275;DHT22;36472;52.170;20.884;2024-03-08T04:06:04;23.00;32.20
21275;DHT22;36472;52.170;20.884;2024-03-08T04:08:33;23.00;31.60
21275;DHT22;36472;52.170;20.884;2024-03-08T04:11:04;23.00;31.80
21275;DHT22;36472;52.170;20.884;2024-03-08T04:13:32;23.00;31.50
21275;DHT22;36472;52.170;20.884;2024-03-08T04:16:02;23.00;31.60
21275;DHT22;36472;52.170;20.884;2024-03-08T04:18:35;23.00;31.90
21275;DHT22;36472;52.170;20.884;2024-03-08T04:21:05;23.00;31.50
21275;DHT22;36472;52.170;20.884;2024-03-08T04:23:35;23.00;31.50
21275;DHT22;36472;52.170;20.884;2024-03-08T04:26:06;22.90;31.60
21275;DHT22;36472;52.170;20.884;2024-03-08T04:28:36;22.90;31.60
21275;DHT22;36472;52.170;20.884;2024-03-08T04:31:08;22.90;31.70
21275;DHT22;36472;52.170;20.884;2024-03-08T04:33:38;23.00;31.80
21275;DHT22;36472;52.170;20.884;2024-03-08T04:36:08;23.00;32.00
21275;DHT22;36472;52.170;20.884;2024-03-08T04:38:41;22.90;31.60
21275;DHT22;36472;52.170;20.884;2024-03-08T04:41:12;23.00;31.90
21275;DHT22;36472;52.170;20.884;2024-03-08T04:43:42;23.00;31.90
21275;DHT22;36472;52.170;20.884;2024-03-08T04:46:11;22.90;31.70
21275;DHT22;36472;52.170;20.884;2024-03-08T04:48:40;22.90;31.50
21275;DHT22;36472;52.170;20.884;2024-03-08T04:51:11;22.90;31.50
21275;DHT22;36472;52.170;20.884;2024-03-08T04:53:40;22.90;31.40
21275;DHT22;36472;52.170;20.884;2024-03-08T04:56:09;22.90;31.40
21275;DHT22;36472;52.170;20.884;2024-03-08T04:58:39;22.90;31.20
21275;DHT22;36472;52.170;20.884;2024-03-08T05:01:08;22.90;31.40
21275;DHT22;36472;52.170;20.884;2024-03-08T05:03:38;22.90;31.80
21275;DHT22;36472;52.170;20.884;2024-03-08T05:06:07;22.90;31.20
21275;DHT22;36472;52.170;20.884;2024-03-08T05:08:36;22.90;31.20
21275;DHT22;36472;52.170;20.884;2024-03-08T05:11:05;22.90;31.60
21275;DHT22;36472;52.170;20.884;2024-03-08T05:13:35;22.90;31.80
21275;DHT22;36472;52.170;20.884;2024-03-08T05:16:07;22.90;31.80
21275;DHT22;36472;52.170;20.884;2024-03-08T05:18:36;22.90;31.70
21275;DHT22;36472;52.170;20.884;2024-03-08T05:21:05;22.80;31.60
21275;DHT22;36472;52.170;20.884;2024-03-08T05:28:07;22.80;31.60
21275;DHT22;36472;52.170;20.884;2024-03-08T05:30:38;22.80;31.60
21275;DHT22;36472;52.170;20.884;2024-03-08T05:33:08;22.80;31.30
21275;DHT22;36472;52.170;20.884;2024-03-08T05:35:38;22.80;31.20
21275;DHT22;36472;52.170;20.884;2024-03-08T05:42:39;22.90;31.10
21275;DHT22;36472;52.170;20.884;2024-03-08T05:45:09;22.90;31.30
21275;DHT22;36472;52.170;20.884;2024-03-08T05:47:39;23.00;31.90
21275;DHT22;36472;52.170;20.884;2024-03-08T05:50:09;23.00;31.80
21275;DHT22;36472;52.170;20.884;2024-03-08T05:52:39;23.00;32.00
21275;DHT22;36472;52.170;20.884;2024-03-08T05:55:08;22.90;31.80
21275;DHT22;36472;52.170;20.884;2024-03-08T05:57:38;23.00;31.70
21275;DHT22;36472;52.170;20.884;2024-03-08T06:00:08;23.00;31.80
21275;DHT22;36472;52.170;20.884;2024-03-08T06:02:39;23.00;31.90
21275;DHT22;36472;52.170;20.884;2024-03-08T06:05:11;23.00;32.10
21275;DHT22;36472;52.170;20.884;2024-03-08T06:07:40;23.00;32.10
21275;DHT22;36472;52.170;20.884;2024-03-08T06:10:10;23.00;32.00
21275;DHT22;36472;52.170;20.884;2024-03-08T06:12:41;23.10;32.30
21275;DHT22;36472;52.170;20.884;2024-03-08T06:15:10;23.10;32.30
21275;DHT22;36472;52.170;20.884;2024-03-08T06:17:42;23.10;32.40
21275;DHT22;36472;52.170;20.884;2024-03-08T06:20:13;23.20;32.50
21275;DHT22;36472;52.170;20.884;2024-03-08T06:22:42;23.20;32.60
21275;DHT22;36472;52.170;20.884;2024-03-08T06:25:12;23.30;32.60
21275;DHT22;36472;52.170;20.884;2024-03-08T06:27:43;23.30;32.80
21275;DHT22;36472;52.170;20.884;2024-03-08T06:30:14;23.40;32.80
21275;DHT22;36472;52.170;20.884;2024-03-08T06:32:44;23.40;32.90
21275;DHT22;36472;52.170;20.884;2024-03-08T06:35:14;23.40;33.00
21275;DHT22;36472;52.170;20.884;2024-03-08T06:37:44;23.50;33.10
21275;DHT22;36472;52.170;20.884;2024-03-08T06:40:13;23.60;33.00
21275;DHT22;36472;52.170;20.884;2024-03-08T06:42:42;23.60;32.90
21275;DHT22;36472;52.170;20.884;2024-03-08T06:45:11;23.70;33.10
21275;DHT22;36472;52.170;20.884;2024-03-08T06:47:43;23.70;33.00
21275;DHT22;36472;52.170;20.884;2024-03-08T06:50:14;23.70;33.20
21275;DHT22;36472;52.170;20.884;2024-03-08T06:52:44;23.80;33.10
21275;DHT22;36472;52.170;20.884;2024-03-08T06:55:15;23.90;33.20
21275;DHT22;36472;52.170;20.884;2024-03-08T06:57:44;23.90;33.10
21275;DHT22;36472;52.170;20.884;2024-03-08T07:04:46;24.00;33.00
21275;DHT22;36472;52.170;20.884;2024-03-08T07:07:16;24.10;33.00
21275;DHT22;36472;52.170;20.884;2024-03-08T07:09:47;24.20;32.90
21275;DHT22;36472;52.170;20.884;2024-03-08T07:12:17;24.20;33.00
21275;DHT22;36472;52.170;20.884;2024-03-08T07:14:48;24.30;33.80
21275;DHT22;36472;52.170;20.884;2024-03-08T07:17:18;24.40;32.90
21275;DHT22;36472;52.170;20.884;2024-03-08T07:19:47;24.50;32.80
21275;DHT22;36472;52.170;20.884;2024-03-08T07:22:17;24.50;32.50
21275;DHT22;36472;52.170;20.884;2024-03-08T07:24:47;24.60;32.50
21275;DHT22;36472;52.170;20.884;2024-03-08T07:27:32;24.70;32.40
21275;DHT22;36472;52.170;20.884;2024-03-08T07:30:02;24.80;32.70
21275;DHT22;36472;52.170;20.884;2024-03-08T07:32:35;24.90;32.70
21275;DHT22;36472;52.170;20.884;2024-03-08T07:35:04;25.00;32.30
21275;DHT22;36472;52.170;20.884;2024-03-08T07:37:34;25.00;32.20
21275;DHT22;36472;52.170;20.884;2024-03-08T07:40:04;25.10;32.10
21275;DHT22;36472;52.170;20.884;2024-03-08T07:42:35;25.30;32.00
21275;DHT22;36472;52.170;20.884;2024-03-08T07:45:06;25.40;31.80
21275;DHT22;36472;52.170;20.884;2024-03-08T07:47:35;25.50;31.60
21275;DHT22;36472;52.170;20.884;2024-03-08T07:50:05;25.60;31.50
21275;DHT22;36472;52.170;20.884;2024-03-08T07:52:37;25.70;31.60
21275;DHT22;36472;52.170;20.884;2024-03-08T07:55:06;25.80;31.10
21275;DHT22;36472;52.170;20.884;2024-03-08T07:57:39;25.90;31.20
21275;DHT22;36472;52.170;20.884;2024-03-08T08:00:11;26.00;31.70
21275;DHT22;36472;52.170;20.884;2024-03-08T08:02:45;26.10;30.90
21275;DHT22;36472;52.170;20.884;2024-03-08T08:05:14;26.20;31.00
21275;DHT22;36472;52.170;20.884;2024-03-08T08:07:47;26.40;30.60
21275;DHT22;36472;52.170;20.884;2024-03-08T08:10:19;26.50;30.70
21275;DHT22;36472;52.170;20.884;2024-03-08T08:12:50;26.60;30.30
21275;DHT22;36472;52.170;20.884;2024-03-08T08:15:19;26.80;30.40
21275;DHT22;36472;52.170;20.884;2024-03-08T08:17:50;26.80;30.70
21275;DHT22;36472;52.170;20.884;2024-03-08T08:20:19;26.90;30.90
21275;DHT22;36472;52.170;20.884;2024-03-08T08:22:50;27.00;30.80
21275;DHT22;36472;52.170;20.884;2024-03-08T08:25:20;27.10;30.80
21275;DHT22;36472;52.170;20.884;2024-03-08T08:27:51;27.20;30.50
21275;DHT22;36472;52.170;20.884;2024-03-08T08:30:21;27.30;30.20
21275;DHT22;36472;52.170;20.884;2024-03-08T08:37:23;27.50;30.30
21275;DHT22;36472;52.170;20.884;2024-03-08T08:39:53;27.60;29.10
21275;DHT22;36472;52.170;20.884;2024-03-08T08:42:22;27.60;30.00
21275;DHT22;36472;52.170;20.884;2024-03-08T08:44:51;27.70;29.40
21275;DHT22;36472;52.170;20.884;2024-03-08T08:47:23;27.90;28.80
21275;DHT22;36472;52.170;20.884;2024-03-08T08:49:52;27.80;28.20
21275;DHT22;36472;52.170;20.884;2024-03-08T08:52:21;28.00;28.80
21275;DHT22;36472;52.170;20.884;2024-03-08T08:54:52;28.10;28.20
21275;DHT22;36472;52.170;20.884;2024-03-08T08:57:21;28.30;28.50
21275;DHT22;36472;52.170;20.884;2024-03-08T08:59:50;28.30;27.80
21275;DHT22;36472;52.170;20.884;2024-03-08T09:02:19;28.40;27.90
21275;DHT22;36472;52.170;20.884;2024-03-08T09:04:49;28.40;28.20
21275;DHT22;36472;52.170;20.884;2024-03-08T09:07:18;28.40;28.50
21275;DHT22;36472;52.170;20.884;2024-03-08T09:09:47;28.50;28.30
21275;DHT22;36472;52.170;20.884;2024-03-08T09:12:18;28.60;28.20
21275;DHT22;36472;52.170;20.884;2024-03-08T09:14:47;28.70;28.20
21275;DHT22;36472;52.170;20.884;2024-03-08T09:17:16;28.60;27.10
21275;DHT22;36472;52.170;20.884;2024-03-08T09:19:48;28.70;27.10
21275;DHT22;36472;52.170;20.884;2024-03-08T09:22:17;28.90;27.50
21275;DHT22;36472;52.170;20.884;2024-03-08T09:24:46;29.10;26.80
21275;DHT22;36472;52.170;20.884;2024-03-08T09:27:15;29.20;26.70
21275;DHT22;36472;52.170;20.884;2024-03-08T09:29:46;29.40;26.20
21275;DHT22;36472;52.170;20.884;2024-03-08T09:32:16;29.50;26.20
21275;DHT22;36472;52.170;20.884;2024-03-08T09:34:45;29.50;25.90
21275;DHT22;36472;52.170;20.884;2024-03-08T09:37:14;29.70;25.90
21275;DHT22;36472;52.170;20.884;2024-03-08T09:39:43;29.90;26.20
21275;DHT22;36472;52.170;20.884;2024-03-08T09:42:13;29.90;26.50
21275;DHT22;36472;52.170;20.884;2024-03-08T09:44:46;29.90;25.80
21275;DHT22;36472;52.170;20.884;2024-03-08T09:47:16;30.00;26.20
21275;DHT22;36472;52.170;20.884;2024-03-08T09:49:50;30.00;26.00
21275;DHT22;36472;52.170;20.884;2024-03-08T09:52:21;30.10;26.70
21275;DHT22;36472;52.170;20.884;2024-03-08T09:54:50;30.20;26.20
21275;DHT22;36472;52.170;20.884;2024-03-08T09:57:19;30.30;26.20
21275;DHT22;36472;52.170;20.884;2024-03-08T09:59:50;30.40;26.50
21275;DHT22;36472;52.170;20.884;2024-03-08T10:02:20;30.50;26.10
21275;DHT22;36472;52.170;20.884;2024-03-08T10:04:51;30.60;26.30
21275;DHT22;36472;52.170;20.884;2024-03-08T10:07:21;30.60;25.80
21275;DHT22;36472;52.170;20.884;2024-03-08T10:09:52;30.80;26.20
21275;DHT22;36472;52.170;20.884;2024-03-08T10:12:21;30.80;25.90
21275;DHT22;36472;52.170;20.884;2024-03-08T10:14:55;31.00;26.30
21275;DHT22;36472;52.170;20.884;2024-03-08T10:17:24;30.90;25.60
21275;DHT22;36472;52.170;20.884;2024-03-08T10:19:54;30.80;25.10
21275;DHT22;36472;52.170;20.884;2024-03-08T10:22:25;31.00;25.80
21275;DHT22;36472;52.170;20.884;2024-03-08T10:24:54;31.00;26.00
21275;DHT22;36472;52.170;20.884;2024-03-08T10:27:23;30.90;25.30
21275;DHT22;36472;52.170;20.884;2024-03-08T10:29:55;30.90;25.30
21275;DHT22;36472;52.170;20.884;2024-03-08T10:32:27;30.80;25.10
21275;DHT22;36472;52.170;20.884;2024-03-08T10:34:56;30.60;25.20
21275;DHT22;36472;52.170;20.884;2024-03-08T10:37:26;30.50;25.80
21275;DHT22;36472;52.170;20.884;2024-03-08T10:40:02;30.50;25.80
21275;DHT22;36472;52.170;20.884;2024-03-08T10:42:41;30.50;25.20
21275;DHT22;36472;52.170;20.884;2024-03-08T10:45:30;30.40;25.10
21275;DHT22;36472;52.170;20.884;2024-03-08T10:48:23;30.50;25.80
21275;DHT22;36472;52.170;20.884;2024-03-08T10:51:05;30.70;26.00
21275;DHT22;36472;52.170;20.884;2024-03-08T10:53:39;30.70;26.10
21275;DHT22;36472;52.170;20.884;2024-03-08T10:56:09;30.80;25.60
21275;DHT22;36472;52.170;20.884;2024-03-08T10:58:39;30.90;25.60
21275;DHT22;36472;52.170;20.884;2024-03-08T11:01:13;31.00;25.20
21275;DHT22;36472;52.170;20.884;2024-03-08T11:03:47;31.00;24.80
21275;DHT22;36472;52.170;20.884;2024-03-08T11:06:29;31.20;25.80
21275;DHT22;36472;52.170;20.884;2024-03-08T11:08:59;31.30;25.00
21275;DHT22;36472;52.170;20.884;2024-03-08T11:11:29;31.30;24.10
21275;DHT22;36472;52.170;20.884;2024-03-08T11:14:02;31.40;24.40
21275;DHT22;36472;52.170;20.884;2024-03-08T11:16:44;31.50;24.70
21275;DHT22;36472;52.170;20.884;2024-03-08T11:19:25;31.70;24.80
21275;DHT22;36472;52.170;20.884;2024-03-08T11:22:00;31.30;24.10
21275;DHT22;36472;52.170;20.884;2024-03-08T11:24:37;31.30;24.40
21275;DHT22;36472;52.170;20.884;2024-03-08T11:27:09;31.60;24.60
21275;DHT22;36472;52.170;20.884;2024-03-08T11:29:40;31.90;24.30
21275;DHT22;36472;52.170;20.884;2024-03-08T11:32:11;32.10;23.90
21275;DHT22;36472;52.170;20.884;2024-03-08T11:34:45;32.30;23.80
21275;DHT22;36472;52.170;20.884;2024-03-08T11:37:18;32.60;23.90
21275;DHT22;36472;52.170;20.884;2024-03-08T11:39:50;32.70;23.60
21275;DHT22;36472;52.170;20.884;2024-03-08T11:42:19;32.70;22.90
21275;DHT22;36472;52.170;20.884;2024-03-08T11:44:50;32.80;23.70
21275;DHT22;36472;52.170;20.884;2024-03-08T11:51:53;33.20;23.40
21275;DHT22;36472;52.170;20.884;2024-03-08T11:54:23;33.40;23.40
21275;DHT22;36472;52.170;20.884;2024-03-08T11:56:52;33.60;23.20
21275;DHT22;36472;52.170;20.884;2024-03-08T11:59:22;33.70;23.00
21275;DHT22;36472;52.170;20.884;2024-03-08T12:02:02;33.70;22.70
21275;DHT22;36472;52.170;20.884;2024-03-08T12:04:33;33.70;22.90
21275;DHT22;36472;52.170;20.884;2024-03-08T12:07:05;33.80;23.20
21275;DHT22;36472;52.170;20.884;2024-03-08T12:09:40;33.90;23.00
21275;DHT22;36472;52.170;20.884;2024-03-08T12:12:14;33.80;22.90
21275;DHT22;36472;52.170;20.884;2024-03-08T12:14:43;33.90;22.60
21275;DHT22;36472;52.170;20.884;2024-03-08T12:17:13;33.90;22.70
21275;DHT22;36472;52.170;20.884;2024-03-08T12:19:46;34.00;22.40
21275;DHT22;36472;52.170;20.884;2024-03-08T12:22:17;33.90;22.60
21275;DHT22;36472;52.170;20.884;2024-03-08T12:25:03;33.90;22.80
21275;DHT22;36472;52.170;20.884;2024-03-08T12:27:33;33.80;22.60
21275;DHT22;36472;52.170;20.884;2024-03-08T12:30:16;33.60;23.00
21275;DHT22;36472;52.170;20.884;2024-03-08T12:32:53;33.40;22.60
21275;DHT22;36472;52.170;20.884;2024-03-08T12:35:26;33.20;23.00
21275;DHT22;36472;52.170;20.884;2024-03-08T12:37:59;33.00;23.50
21275;DHT22;36472;52.170;20.884;2024-03-08T12:40:29;32.70;23.80
21275;DHT22;36472;52.170;20.884;2024-03-08T12:43:01;32.40;23.30
21275;DHT22;36472;52.170;20.884;2024-03-08T12:45:30;32.10;23.80
21275;DHT22;36472;52.170;20.884;2024-03-08T12:48:00;31.90;23.60
21275;DHT22;36472;52.170;20.884;2024-03-08T12:50:30;31.60;24.00
21275;DHT22;36472;52.170;20.884;2024-03-08T12:53:01;31.40;23.90
21275;DHT22;36472;52.170;20.884;2024-03-08T12:55:34;31.30;24.50
21275;DHT22;36472;52.170;20.884;2024-03-08T12:58:04;31.10;24.00
21275;DHT22;36472;52.170;20.884;2024-03-08T13:00:34;30.80;24.00
21275;DHT22;36472;52.170;20.884;2024-03-08T13:03:04;30.70;24.20
21275;DHT22;36472;52.170;20.884;2024-03-08T13:05:34;30.60;24.50
21275;DHT22;36472;52.170;20.884;2024-03-08T13:08:09;30.50;24.50
21275;DHT22;36472;52.170;20.884;2024-03-08T13:10:40;30.40;24.50
21275;DHT22;36472;52.170;20.884;2024-03-08T13:16:03;30.30;24.50
21275;DHT22;36472;52.170;20.884;2024-03-08T13:18:35;30.30;24.90
21275;DHT22;36472;52.170;20.884;2024-03-08T13:21:04;30.20;24.80
21275;DHT22;36472;52.170;20.884;2024-03-08T13:23:36;30.20;24.80
21275;DHT22;36472;52.170;20.884;2024-03-08T13:26:08;30.10;25.10
21275;DHT22;36472;52.170;20.884;2024-03-08T13:28:39;30.10;25.10
21275;DHT22;36472;52.170;20.884;2024-03-08T13:35:41;30.00;25.30
21275;DHT22;36472;52.170;20.884;2024-03-08T13:38:10;30.00;24.90
21275;DHT22;36472;52.170;20.884;2024-03-08T13:40:42;29.90;25.00
21275;DHT22;36472;52.170;20.884;2024-03-08T13:43:11;30.00;25.00
21275;DHT22;36472;52.170;20.884;2024-03-08T13:45:40;30.00;25.30
21275;DHT22;36472;52.170;20.884;2024-03-08T13:48:10;30.00;25.20
21275;DHT22;36472;52.170;20.884;2024-03-08T13:50:40;30.00;25.30
21275;DHT22;36472;52.170;20.884;2024-03-08T13:53:09;30.00;25.50
21275;DHT22;36472;52.170;20.884;2024-03-08T13:55:38;30.10;25.30
21275;DHT22;36472;52.170;20.884;2024-03-08T14:02:41;30.00;25.30
21275;DHT22;36472;52.170;20.884;2024-03-08T14:05:10;30.10;25.40
21275;DHT22;36472;52.170;20.884;2024-03-08T14:07:42;30.10;24.90
21275;DHT22;36472;52.170;20.884;2024-03-08T14:10:13;30.10;25.30
21275;DHT22;36472;52.170;20.884;2024-03-08T14:12:43;30.10;25.10
21275;DHT22;36472;52.170;20.884;2024-03-08T14:15:12;30.10;25.00
21275;DHT22;36472;52.170;20.884;2024-03-08T14:17:42;30.10;25.10
21275;DHT22;36472;52.170;20.884;2024-03-08T14:20:14;30.10;24.80
21275;DHT22;36472;52.170;20.884;2024-03-08T14:22:45;30.00;24.70
21275;DHT22;36472;52.170;20.884;2024-03-08T14:25:14;30.00;24.80
21275;DHT22;36472;52.170;20.884;2024-03-08T14:27:46;30.00;24.90
21275;DHT22;36472;52.170;20.884;2024-03-08T14:30:16;29.90;25.50
21275;DHT22;36472;52.170;20.884;2024-03-08T14:33:01;29.90;24.80
21275;DHT22;36472;52.170;20.884;2024-03-08T14:35:30;29.90;25.20
21275;DHT22;36472;52.170;20.884;2024-03-08T14:37:59;29.90;25.20
21275;DHT22;36472;52.170;20.884;2024-03-08T14:40:28;29.90;25.10
21275;DHT22;36472;52.170;20.884;2024-03-08T14:42:58;29.80;25.00
21275;DHT22;36472;52.170;20.884;2024-03-08T14:45:32;29.90;25.00
21275;DHT22;36472;52.170;20.884;2024-03-08T14:48:04;29.90;25.50
21275;DHT22;36472;52.170;20.884;2024-03-08T14:50:33;29.90;25.50
21275;DHT22;36472;52.170;20.884;2024-03-08T14:53:04;29.90;25.10
21275;DHT22;36472;52.170;20.884;2024-03-08T14:55:34;29.80;25.00
21275;DHT22;36472;52.170;20.884;2024-03-08T14:58:04;29.80;24.80
21275;DHT22;36472;52.170;20.884;2024-03-08T15:00:32;29.90;25.00
21275;DHT22;36472;52.170;20.884;2024-03-08T15:03:05;29.90;25.80
21275;DHT22;36472;52.170;20.884;2024-03-08T15:10:06;29.90;25.40
21275;DHT22;36472;52.170;20.884;2024-03-08T15:12:38;29.90;25.70
21275;DHT22;36472;52.170;20.884;2024-03-08T15:15:08;29.90;25.40
21275;DHT22;36472;52.170;20.884;2024-03-08T15:17:37;29.90;25.70
21275;DHT22;36472;52.170;20.884;2024-03-08T15:20:09;29.90;25.50
21275;DHT22;36472;52.170;20.884;2024-03-08T15:22:43;29.90;25.70
21275;DHT22;36472;52.170;20.884;2024-03-08T15:25:15;29.90;25.90
21275;DHT22;36472;52.170;20.884;2024-03-08T15:27:48;29.90;26.10
21275;DHT22;36472;52.170;20.884;2024-03-08T15:30:17;29.90;25.70
21275;DHT22;36472;52.170;20.884;2024-03-08T15:32:49;29.90;26.50
21275;DHT22;36472;52.170;20.884;2024-03-08T15:35:20;29.80;26.60
21275;DHT22;36472;52.170;20.884;2024-03-08T15:37:49;29.80;26.60
21275;DHT22;36472;52.170;20.884;2024-03-08T15:40:20;29.80;26.60
21275;DHT22;36472;52.170;20.884;2024-03-08T15:42:54;29.70;26.90
21275;DHT22;36472;52.170;20.884;2024-03-08T15:45:24;29.60;27.00
21275;DHT22;36472;52.170;20.884;2024-03-08T15:47:54;29.60;26.80
21275;DHT22;36472;52.170;20.884;2024-03-08T15:54:57;29.50;26.70
21275;DHT22;36472;52.170;20.884;2024-03-08T15:57:26;29.50;27.20
21275;DHT22;36472;52.170;20.884;2024-03-08T15:59:55;29.40;26.80
21275;DHT22;36472;52.170;20.884;2024-03-08T16:02:27;29.40;27.10
21275;DHT22;36472;52.170;20.884;2024-03-08T16:04:57;29.30;27.70
21275;DHT22;36472;52.170;20.884;2024-03-08T16:07:26;29.30;28.00
21275;DHT22;36472;52.170;20.884;2024-03-08T16:14:29;29.10;27.90
21275;DHT22;36472;52.170;20.884;2024-03-08T16:16:58;29.00;27.30
21275;DHT22;36472;52.170;20.884;2024-03-08T16:19:27;29.00;27.80
21275;DHT22;36472;52.170;20.884;2024-03-08T16:21:58;28.90;28.10
21275;DHT22;36472;52.170;20.884;2024-03-08T16:24:27;28.90;28.70
21275;DHT22;36472;52.170;20.884;2024-03-08T16:27:00;28.80;28.50
21275;DHT22;36472;52.170;20.884;2024-03-08T16:34:03;28.70;28.90
21275;DHT22;36472;52.170;20.884;2024-03-08T16:36:33;28.50;28.90
21275;DHT22;36472;52.170;20.884;2024-03-08T16:39:02;28.50;28.90